Time;durP1;ratioP1;P1;durP2;ratioP2;P2;SDS_P1;SDS_P2;PMS_P1;PMS_P2;Temp;Humidity;BMP_temperature;BMP_pressure;BME280_temperature;BME280_humidity;BME280_pressure;Samples;Min_cycle;Max_cycle;Signal;HPM_P1;HPM_P2
2022/12/23 00:01:04;;;;;;;22.90;10.50;;;;;;;3.43;100.00;97828.47;213799;1313;23736;-75
2022/12/23 00:06:12;;;;;;;24.50;12.00;;;;;;;3.41;100.00;97828.58;214002;1312;25263;-75
2022/12/23 00:11:18;;;;;;;21.70;9.90;;;;;;;3.37;100.00;97831.59;213928;1312;22540;-76
2022/12/23 00:16:20;;;;;;;22.30;11.40;;;;;;;3.38;100.00;97835.46;213716;1306;22481;-75
2022/12/23 00:21:22;;;;;;;29.90;11.60;;;;;;;3.39;100.00;97833.50;213767;1312;23912;-76
2022/12/23 00:26:26;;;;;;;24.60;11.10;;;;;;;3.40;100.00;97834.82;213745;1312;22442;-76
2022/12/23 00:31:29;;;;;;;26.50;11.60;;;;;;;3.38;100.00;97836.41;213832;1312;25303;-76
2022/12/23 00:36:31;;;;;;;20.10;9.80;;;;;;;3.36;100.00;97840.44;213959;1312;22524;-76
2022/12/23 00:46:55;;;;;;;22.70;11.80;;;;;;;3.37;100.00;97826.67;214065;1312;24087;-74
2022/12/23 00:51:57;;;;;;;25.20;11.40;;;;;;;3.29;100.00;97827.98;213867;1312;22496;-76
2022/12/23 00:56:59;;;;;;;31.00;12.80;;;;;;;3.16;100.00;97829.20;213830;1312;25315;-75
2022/12/23 01:07:23;;;;;;;22.40;12.80;;;;;;;3.02;100.00;97825.99;213709;1312;22478;-75
2022/12/23 01:12:25;;;;;;;35.00;16.00;;;;;;;2.92;100.00;97824.76;214000;1312;24054;-75
2022/12/23 01:17:27;;;;;;;31.70;15.00;;;;;;;2.75;100.00;97828.41;213772;1312;25298;-74
2022/12/23 01:22:28;;;;;;;37.00;17.10;;;;;;;2.57;100.00;97834.23;214008;1312;25455;-76
2022/12/23 01:27:30;;;;;;;39.90;19.70;;;;;;;2.43;100.00;97828.41;214031;1311;24280;-75
2022/12/23 01:32:32;;;;;;;38.80;17.20;;;;;;;2.31;100.00;97826.09;213792;1312;24804;-75
2022/12/23 01:37:34;;;;;;;38.00;19.20;;;;;;;2.20;100.00;97829.10;213691;1312;25644;-76
2022/12/23 01:42:45;;;;;;;37.60;17.90;;;;;;;2.11;100.00;97829.42;214043;1312;25481;-75
2022/12/23 01:48:00;;;;;;;37.70;17.00;;;;;;;2.03;100.00;97831.80;213774;1312;22474;-75
2022/12/23 01:53:14;;;;;;;31.40;14.40;;;;;;;1.97;100.00;97837.48;213742;1312;24243;-75
2022/12/23 01:58:22;;;;;;;36.40;16.80;;;;;;;1.92;100.00;97842.40;213742;1312;22539;-75
2022/12/23 02:03:42;;;;;;;30.90;15.00;;;;;;;1.86;100.00;97841.80;213889;1312;23628;-76
2022/12/23 02:09:18;;;;;;;28.10;14.00;;;;;;;1.81;100.00;97845.98;213770;1312;22495;-75
2022/12/23 02:20:28;;;;;;;33.50;14.90;;;;;;;1.74;100.00;97854.39;213917;1312;22500;-77
2022/12/23 02:25:56;;;;;;;32.70;15.60;;;;;;;1.72;100.00;97853.63;213776;1312;22999;-76
2022/12/23 02:31:18;;;;;;;38.30;15.60;;;;;;;1.74;100.00;97855.82;213778;1312;22467;-75
2022/12/23 02:36:41;;;;;;;36.10;16.90;;;;;;;1.71;100.00;97852.30;213832;1312;22873;-75
2022/12/23 02:42:01;;;;;;;31.90;14.90;;;;;;;1.67;100.00;97838.02;213772;1312;24994;-75
2022/12/23 02:47:10;;;;;;;27.60;14.30;;;;;;;1.66;100.00;97842.66;213722;1312;23752;-76
2022/12/23 02:52:14;;;;;;;35.80;16.80;;;;;;;1.69;100.00;97837.98;213632;1306;22464;-75
2022/12/23 02:57:22;;;;;;;36.30;16.30;;;;;;;1.74;100.00;97838.98;213820;1312;22624;-73
2022/12/23 03:02:24;;;;;;;31.40;15.70;;;;;;;1.77;100.00;97837.04;213844;1312;24260;-76
2022/12/23 03:07:34;;;;;;;29.90;15.50;;;;;;;1.80;100.00;97838.06;213741;1312;23164;-76
2022/12/23 03:13:14;;;;;;;31.60;14.80;;;;;;;1.87;100.00;97837.31;213629;1312;22521;-76
2022/12/23 03:18:51;;;;;;;29.90;15.30;;;;;;;1.93;100.00;97827.57;213827;1311;22499;-75
2022/12/23 03:24:02;;;;;;;29.20;15.00;;;;;;;1.97;100.00;97829.66;213910;1312;22511;-76
2022/12/23 03:29:16;;;;;;;32.40;15.50;;;;;;;2.04;100.00;97829.54;213662;1312;23667;-76
2022/12/23 03:34:23;;;;;;;30.00;14.90;;;;;;;2.09;100.00;97825.92;213734;1312;22531;-76
2022/12/23 03:39:31;;;;;;;30.20;15.60;;;;;;;2.13;100.00;97837.89;213964;1312;22499;-75
2022/12/23 03:44:41;;;;;;;31.50;15.60;;;;;;;2.21;100.00;97829.63;213776;1312;22555;-76
2022/12/23 03:50:10;;;;;;;33.10;15.80;;;;;;;2.34;100.00;97823.73;213694;1312;22486;-75
2022/12/23 03:55:21;;;;;;;26.10;13.60;;;;;;;2.39;100.00;97828.13;213600;1312;22614;-77
2022/12/23 04:00:24;;;;;;;30.70;15.70;;;;;;;2.40;100.00;97822.64;213734;1312;22501;-76
2022/12/23 04:05:34;;;;;;;25.30;13.60;;;;;;;2.43;100.00;97815.67;213818;1312;22872;-75
2022/12/23 04:10:36;;;;;;;33.70;16.20;;;;;;;2.41;100.00;97810.16;213917;1312;22476;-76
2022/12/23 04:15:40;;;;;;;25.00;13.70;;;;;;;2.42;100.00;97808.73;213784;1299;22484;-75
2022/12/23 04:20:42;;;;;;;28.90;14.00;;;;;;;2.47;100.00;97806.06;213517;1312;25384;-74
2022/12/23 04:25:43;;;;;;;27.10;13.80;;;;;;;2.52;100.00;97804.02;213870;1309;22493;-75
2022/12/23 04:30:45;;;;;;;24.20;13.10;;;;;;;2.63;100.00;97800.88;213666;1312;24355;-75
2022/12/23 04:35:47;;;;;;;26.20;12.80;;;;;;;2.76;100.00;97802.13;213734;1312;24460;-75
2022/12/23 04:40:49;;;;;;;23.30;13.00;;;;;;;2.86;100.00;97796.34;213773;1312;22503;-77
2022/12/23 04:45:51;;;;;;;21.30;12.20;;;;;;;3.00;100.00;97798.79;213855;1312;23255;-75
2022/12/23 04:50:52;;;;;;;22.00;12.00;;;;;;;3.14;100.00;97798.39;213621;1312;24300;-74
2022/12/23 04:55:54;;;;;;;23.80;12.40;;;;;;;3.23;100.00;97794.48;213686;1299;22682;-75
2022/12/23 05:01:04;;;;;;;21.00;12.50;;;;;;;3.30;100.00;97804.27;213837;1312;22524;-76
2022/12/23 05:06:06;;;;;;;23.10;12.70;;;;;;;3.37;100.00;97796.21;213878;1312;22530;-76
2022/12/23 05:11:08;;;;;;;24.40;13.50;;;;;;;3.44;100.00;97791.35;213858;1312;22456;-75
2022/12/23 05:16:10;;;;;;;23.50;13.00;;;;;;;3.50;100.00;97776.36;213881;1312;22602;-76
2022/12/23 05:21:12;;;;;;;22.90;11.80;;;;;;;3.52;100.00;97772.02;213821;1303;22506;-76
2022/12/23 05:26:14;;;;;;;20.50;11.10;;;;;;;3.56;100.00;97775.61;213957;1312;22494;-76
2022/12/23 05:31:16;;;;;;;25.60;13.00;;;;;;;3.58;100.00;97769.67;213750;1312;25371;-76
2022/12/23 05:36:18;;;;;;;22.20;12.50;;;;;;;3.56;100.00;97766.52;213560;1312;25270;-75
2022/12/23 05:41:19;;;;;;;26.20;14.50;;;;;;;3.53;100.00;97758.02;213876;1312;25267;-75
2022/12/23 05:46:21;;;;;;;28.40;15.80;;;;;;;3.47;100.00;97762.70;213841;1312;25454;-76
2022/12/23 05:51:27;;;;;;;31.80;16.70;;;;;;;3.40;100.00;97762.66;213876;1306;22584;-76
2022/12/23 05:56:29;;;;;;;27.10;15.50;;;;;;;3.33;100.00;97759.70;213643;1312;22587;-75
2022/12/23 06:01:31;;;;;;;25.30;14.20;;;;;;;3.29;100.00;97755.69;213653;1312;22515;-76
2022/12/23 06:06:33;;;;;;;26.90;15.50;;;;;;;3.24;100.00;97752.71;213824;1298;22624;-76
2022/12/23 06:11:35;;;;;;;30.90;16.30;;;;;;;3.22;100.00;97754.94;213821;1312;25201;-75
2022/12/23 06:16:37;;;;;;;32.60;17.50;;;;;;;3.20;100.00;97755.20;213606;1310;22743;-76
2022/12/23 06:21:38;;;;;;;29.40;16.60;;;;;;;3.20;100.00;97761.70;213766;1312;22631;-76
2022/12/23 06:26:41;;;;;;;30.60;16.90;;;;;;;3.21;100.00;97760.81;213791;1312;26352;-75
2022/12/23 06:31:43;;;;;;;31.30;16.70;;;;;;;3.23;100.00;97760.91;213696;1312;22484;-76
2022/12/23 06:36:45;;;;;;;32.50;19.50;;;;;;;3.26;100.00;97766.48;213827;1311;22503;-76
2022/12/23 06:41:47;;;;;;;32.00;18.20;;;;;;;3.31;100.00;97772.61;213742;1312;25319;-76
2022/12/23 06:46:49;;;;;;;25.40;14.20;;;;;;;3.36;100.00;97776.69;213819;1281;26415;-76
2022/12/23 06:51:51;;;;;;;28.00;14.90;;;;;;;3.44;100.00;97786.16;214303;1280;25224;-76
2022/12/23 06:56:52;;;;;;;24.10;13.00;;;;;;;3.55;100.00;97789.17;214178;1289;24278;-76
2022/12/23 07:01:54;;;;;;;23.20;12.30;;;;;;;3.65;100.00;97784.98;214242;1281;138808;-76
2022/12/23 07:06:56;;;;;;;24.10;11.70;;;;;;;3.74;100.00;97786.34;214491;1280;138776;-76
2022/12/23 07:11:58;;;;;;;19.20;11.00;;;;;;;3.83;100.00;97784.79;214216;1281;138695;-77
2022/12/23 07:17:00;;;;;;;18.10;10.80;;;;;;;3.93;100.00;97787.79;214331;1280;138762;-75
2022/12/23 07:22:02;;;;;;;22.80;11.30;;;;;;;4.03;100.00;97788.77;214370;1280;22529;-76
2022/12/23 07:27:04;;;;;;;21.30;12.70;;;;;;;4.11;100.00;97786.10;214072;1284;138807;-77
2022/12/23 07:32:05;;;;;;;27.20;12.70;;;;;;;4.17;100.00;97794.05;213981;1288;138727;-76
2022/12/23 07:37:07;;;;;;;22.50;12.20;;;;;;;4.24;100.00;97796.34;214078;1281;138773;-77
2022/12/23 07:42:09;;;;;;;21.20;11.60;;;;;;;4.34;100.00;97795.03;214036;1280;138722;-76
2022/12/23 07:47:31;;;;;;;19.40;11.40;;;;;;;4.42;100.00;97796.32;214205;1284;138705;-77
2022/12/23 07:52:33;;;;;;;18.90;10.70;;;;;;;4.51;100.00;97784.58;214213;1287;22596;-76
2022/12/23 07:57:36;;;;;;;18.90;10.30;;;;;;;4.59;100.00;97776.05;214133;1283;138459;-75
2022/12/23 08:02:39;;;;;;;19.30;10.50;;;;;;;4.66;100.00;97776.05;215215;1288;138521;-74
2022/12/23 08:07:43;;;;;;;17.10;10.00;;;;;;;4.72;100.00;97770.93;214263;1281;138716;-75
2022/12/23 08:12:45;;;;;;;14.90;7.60;;;;;;;4.80;100.00;97766.05;214134;1280;138722;-76
2022/12/23 08:17:47;;;;;;;14.70;8.80;;;;;;;4.92;100.00;97757.33;214133;1294;138702;-74
2022/12/23 08:22:49;;;;;;;14.90;8.00;;;;;;;5.03;100.00;97756.03;214138;1288;23337;-78
2022/12/23 08:27:51;;;;;;;16.50;10.10;;;;;;;5.13;100.00;97748.88;214163;1288;138164;-76
2022/12/23 08:32:53;;;;;;;18.60;9.40;;;;;;;5.17;100.00;97748.43;214044;1288;138616;-76
2022/12/23 08:37:55;;;;;;;17.50;10.00;;;;;;;5.18;100.00;97751.03;213988;1284;138777;-76
2022/12/23 08:42:57;;;;;;;18.10;10.10;;;;;;;5.21;100.00;97747.08;213783;1296;138822;-75
2022/12/23 08:47:58;;;;;;;20.60;10.00;;;;;;;5.29;100.00;97754.92;214153;1288;139283;-75
2022/12/23 08:53:00;;;;;;;20.00;9.70;;;;;;;5.34;100.00;97738.09;214183;1288;139354;-76
2022/12/23 08:58:02;;;;;;;16.80;8.90;;;;;;;5.37;100.00;97741.36;214322;1312;22524;-75
2022/12/23 09:03:04;;;;;;;16.00;8.20;;;;;;;5.37;100.00;97734.55;214753;1297;138343;-75
2022/12/23 09:08:07;;;;;;;12.10;7.60;;;;;;;5.36;100.00;97737.60;214220;1284;138727;-75
2022/12/23 09:13:12;;;;;;;14.90;6.90;;;;;;;5.35;100.00;97727.19;213968;1287;138615;-75
2022/12/23 09:18:25;;;;;;;12.20;6.60;;;;;;;5.37;100.00;97724.42;213919;1312;138718;-75
2022/12/23 09:23:27;;;;;;;12.60;6.20;;;;;;;5.44;100.00;97718.30;214038;1288;138641;-74
2022/12/23 09:28:29;;;;;;;13.30;6.80;;;;;;;5.52;100.00;97709.67;214300;1288;22626;-76
2022/12/23 09:33:31;;;;;;;11.20;6.40;;;;;;;5.61;100.00;97703.30;213926;1287;138662;-74
2022/12/23 09:38:33;;;;;;;12.60;6.50;;;;;;;5.73;100.00;97697.17;214225;1296;138832;-74
2022/12/23 09:44:04;;;;;;;10.80;6.50;;;;;;;5.81;100.00;97695.02;214035;1291;139458;-73
2022/12/23 09:49:12;;;;;;;10.30;6.70;;;;;;;5.83;100.00;97687.29;214219;1281;139122;-73
2022/12/23 09:54:23;;;;;;;11.50;7.80;;;;;;;5.85;100.00;97680.14;214225;1288;138990;-74
2022/12/23 09:59:46;;;;;;;14.30;7.10;;;;;;;5.85;100.00;97668.45;214279;1297;138752;-75
2022/12/23 10:04:51;;;;;;;13.50;7.70;;;;;;;5.89;100.00;97670.57;214937;1289;25414;-74
2022/12/23 10:09:56;;;;;;;13.70;7.10;;;;;;;5.98;100.00;97672.14;214365;1283;138085;-75
2022/12/23 10:15:01;;;;;;;12.20;7.50;;;;;;;6.11;100.00;97677.41;214183;1288;138529;-74
2022/12/23 10:20:07;;;;;;;13.10;6.60;;;;;;;6.32;100.00;97678.90;214073;1288;138673;-74
2022/12/23 10:25:31;;;;;;;10.00;6.30;;;;;;;6.45;100.00;97680.98;214685;1281;138578;-74
2022/12/23 10:30:39;;;;;;;8.00;4.80;;;;;;;6.52;100.00;97681.38;214185;1288;138599;-74
2022/12/23 10:36:08;;;;;;;8.30;4.70;;;;;;;6.58;100.00;97679.27;214569;1288;138421;-75
2022/12/23 10:41:16;;;;;;;9.30;5.50;;;;;;;6.59;100.00;97687.56;215854;1295;242853;-75
2022/12/23 10:46:42;;;;;;;9.50;5.40;;;;;;;6.52;100.00;97682.34;214364;1296;23098;-74
2022/12/23 10:51:50;;;;;;;10.20;6.20;;;;;;;6.48;100.00;97684.30;214254;1286;138124;-74
2022/12/23 10:56:53;;;;;;;10.20;5.80;;;;;;;6.45;100.00;97686.69;214400;1280;138582;-76
2022/12/23 11:02:03;;;;;;;10.00;6.00;;;;;;;6.42;100.00;97684.98;214727;1283;138497;-73
2022/12/23 11:07:09;;;;;;;11.00;6.00;;;;;;;6.39;100.00;97685.65;214549;1281;138664;-74
2022/12/23 11:12:42;;;;;;;9.70;5.70;;;;;;;6.33;100.00;97684.30;214151;1283;138876;-75
2022/12/23 11:17:59;;;;;;;9.80;5.60;;;;;;;6.31;100.00;97680.66;214064;1280;138816;-75
2022/12/23 11:23:02;;;;;;;10.30;5.40;;;;;;;6.33;100.00;97676.48;214419;1281;138865;-77
2022/12/23 11:28:10;;;;;;;12.80;6.30;;;;;;;6.36;100.00;97676.81;214467;1284;25449;-74
2022/12/23 11:33:27;;;;;;;8.00;4.50;;;;;;;6.43;100.00;97680.54;214578;1287;138921;-74
2022/12/23 11:38:31;;;;;;;9.00;5.50;;;;;;;6.45;100.00;97679.09;214506;1287;138772;-76
2022/12/23 11:44:25;;;;;;;8.90;5.60;;;;;;;6.43;100.00;97675.13;215214;1288;137994;-75
2022/12/23 11:50:09;;;;;;;;;;;;;;;;;;;;;
2022/12/23 11:56:15;;;;;;;10.00;5.80;;;;;;;6.37;100.00;97673.02;214179;1291;138907;-75
2022/12/23 12:02:04;;;;;;;12.70;6.20;;;;;;;6.33;100.00;97673.77;214872;1309;139171;-75
2022/12/23 12:07:12;;;;;;;14.50;6.80;;;;;;;6.35;100.00;97678.84;214781;1280;138612;-76
2022/12/23 12:12:19;;;;;;;13.60;7.40;;;;;;;6.38;100.00;97675.25;214420;1283;139044;-76
2022/12/23 12:17:24;;;;;;;14.10;8.20;;;;;;;6.45;100.00;97677.42;214085;1288;138665;-75
2022/12/23 12:22:32;;;;;;;12.90;7.50;;;;;;;6.56;100.00;97679.35;214205;1310;24265;-76
2022/12/23 12:27:38;;;;;;;13.70;7.30;;;;;;;6.63;100.00;97678.40;214035;1294;138521;-76
2022/12/23 12:33:04;;;;;;;11.40;6.60;;;;;;;6.65;100.00;97683.53;213796;1281;138402;-76
2022/12/23 12:38:32;;;;;;;13.30;7.60;;;;;;;6.70;100.00;97683.73;214178;1280;138661;-76
2022/12/23 12:43:39;;;;;;;11.80;7.30;;;;;;;6.73;100.00;97681.60;214072;1307;138711;-77
2022/12/23 12:48:55;;;;;;;10.20;6.00;;;;;;;6.71;100.00;97689.89;214044;1289;138647;-75
2022/12/23 12:54:03;;;;;;;10.10;5.50;;;;;;;6.66;100.00;97688.35;213983;1288;138496;-78
2022/12/23 12:59:15;;;;;;;10.40;5.50;;;;;;;6.63;100.00;97691.65;214291;1283;22527;-78
2022/12/23 13:04:32;;;;;;;;;;;;;;;6.57;100.00;97699.66;215042;1283;25384;-78
2022/12/23 13:09:54;;;;;;;11.60;5.30;;;;;;;6.49;100.00;97708.30;214237;1288;124716;-79
2022/12/23 13:15:22;;;;;;;11.30;5.90;;;;;;;6.43;100.00;97706.35;214020;1283;138709;-75
2022/12/23 13:20:40;;;;;;;11.00;5.50;;;;;;;6.39;100.00;97706.52;214217;1294;138535;-78
2022/12/23 13:25:45;;;;;;;8.60;4.90;;;;;;;6.39;100.00;97708.27;214341;1287;138622;-77
2022/12/23 13:31:12;;;;;;;8.50;5.00;;;;;;;6.40;100.00;97710.65;214421;1288;139072;-77
2022/12/23 13:36:36;;;;;;;9.70;5.40;;;;;;;6.38;100.00;97714.83;214051;1287;22602;-76
2022/12/23 13:41:48;;;;;;;8.90;5.60;;;;;;;6.35;100.00;97722.95;213977;1312;22482;-77
2022/12/23 13:46:56;;;;;;;9.50;5.90;;;;;;;6.31;100.00;97725.45;213701;1308;22531;-78
2022/12/23 13:52:09;;;;;;;10.20;5.50;;;;;;;6.28;100.00;97724.38;213749;1312;23395;-79
2022/12/23 13:57:30;;;;;;;9.10;5.60;;;;;;;6.17;100.00;97724.35;213708;1312;24106;-78
2022/12/23 14:02:35;;;;;;;9.40;5.80;;;;;;;6.07;100.00;97724.52;214017;1312;22536;-77
2022/12/23 14:07:43;;;;;;;12.70;6.10;;;;;;;6.00;100.00;97726.67;213795;1312;22920;-78
2022/12/23 14:12:45;;;;;;;10.40;5.30;;;;;;;5.95;100.00;97735.95;214042;1299;22475;-78
2022/12/23 14:18:02;;;;;;;9.70;6.10;;;;;;;5.92;100.00;97738.87;213944;1298;23370;-77
2022/12/23 14:23:27;;;;;;;11.50;5.80;;;;;;;5.90;100.00;97743.52;213784;1312;22450;-76
2022/12/23 14:28:54;;;;;;;9.10;4.90;;;;;;;5.86;100.00;97744.02;213989;1306;23751;-77
2022/12/23 14:34:05;;;;;;;11.60;6.10;;;;;;;5.82;100.00;97738.80;213884;1312;22588;-78
2022/12/23 14:39:12;;;;;;;12.50;6.50;;;;;;;5.78;100.00;97736.30;213837;1292;22487;-77
2022/12/23 14:44:42;;;;;;;9.40;5.70;;;;;;;5.70;100.00;97737.02;213893;1312;22482;-76
2022/12/23 14:49:44;;;;;;;10.80;6.10;;;;;;;5.61;100.00;97742.73;213990;1312;22479;-76
2022/12/23 14:54:46;;;;;;;11.30;6.80;;;;;;;5.51;100.00;97742.41;213982;1312;22604;-77
2022/12/23 15:00:09;;;;;;;12.10;6.70;;;;;;;5.46;100.00;97744.20;213772;1312;25466;-78
2022/12/23 15:05:12;;;;;;;12.10;6.40;;;;;;;5.43;100.00;97740.46;214090;1312;22532;-78
2022/12/23 15:10:20;;;;;;;16.80;8.30;;;;;;;5.42;100.00;97744.36;214081;1307;22565;-78
2022/12/23 15:15:24;;;;;;;12.70;6.90;;;;;;;5.43;100.00;97748.45;214001;1312;23233;-77
2022/12/23 15:20:27;;;;;;;14.30;7.50;;;;;;;5.42;100.00;97746.11;213881;1312;23617;-77
2022/12/23 15:25:34;;;;;;;11.40;6.60;;;;;;;5.37;100.00;97742.38;213627;1312;25416;-75
2022/12/23 15:30:47;;;;;;;13.80;8.10;;;;;;;5.30;100.00;97751.84;213772;1312;22488;-78
2022/12/23 15:35:49;;;;;;;16.50;9.30;;;;;;;5.26;100.00;97759.41;213791;1312;22484;-78
2022/12/23 15:41:00;;;;;;;26.70;13.00;;;;;;;5.25;100.00;97762.13;213974;1312;22694;-76
2022/12/23 15:46:20;;;;;;;23.20;12.30;;;;;;;5.26;100.00;97755.58;213985;1304;22622;-77
2022/12/23 15:51:34;;;;;;;23.00;12.80;;;;;;;5.25;100.00;97747.99;213968;1298;22585;-77
2022/12/23 15:56:58;;;;;;;19.70;12.00;;;;;;;5.21;100.00;97742.50;213734;1312;22537;-77
2022/12/23 16:02:18;;;;;;;18.70;11.40;;;;;;;5.19;100.00;97742.41;213783;1312;22538;-78
2022/12/23 16:07:41;;;;;;;17.60;10.60;;;;;;;5.17;100.00;97749.81;213843;1293;25227;-77
2022/12/23 16:12:43;;;;;;;18.70;10.40;;;;;;;5.16;100.00;97754.34;213670;1312;22476;-77
2022/12/23 16:17:45;;;;;;;17.50;11.10;;;;;;;5.16;100.00;97757.69;213725;1312;22539;-77
2022/12/23 16:22:50;;;;;;;17.60;10.60;;;;;;;5.15;100.00;97747.70;213919;1312;23235;-77
2022/12/23 16:27:57;;;;;;;21.70;12.10;;;;;;;5.13;100.00;97746.34;214019;1312;24296;-76
2022/12/23 16:33:02;;;;;;;24.70;12.10;;;;;;;5.11;100.00;97729.59;213971;1312;22471;-77
2022/12/23 16:38:13;;;;;;;25.10;13.10;;;;;;;5.08;100.00;97717.98;214103;1312;23099;-77
2022/12/23 16:43:15;;;;;;;26.00;15.00;;;;;;;5.06;100.00;97726.70;214032;1304;24724;-78
2022/12/23 16:48:39;;;;;;;24.40;13.70;;;;;;;5.01;100.00;97727.38;214052;1312;22578;-77
2022/12/23 16:53:41;;;;;;;30.20;15.50;;;;;;;4.97;100.00;97724.00;213952;1312;22609;-77
2022/12/23 16:58:43;;;;;;;33.00;16.50;;;;;;;4.94;100.00;97720.52;213553;1312;25330;-76
2022/12/23 17:03:45;;;;;;;26.20;14.00;;;;;;;4.94;100.00;97720.79;213639;1312;22592;-77
2022/12/23 17:08:48;;;;;;;26.30;13.90;;;;;;;4.94;100.00;97728.33;213926;1312;22439;-77
2022/12/23 17:13:50;;;;;;;27.70;15.30;;;;;;;4.95;100.00;97736.28;213632;1312;25271;-77
2022/12/23 17:18:52;;;;;;;26.40;15.40;;;;;;;4.94;100.00;97732.36;213903;1312;23788;-77
2022/12/23 17:24:02;;;;;;;28.10;15.50;;;;;;;4.90;100.00;97736.53;214162;1312;23723;-77
2022/12/23 17:29:04;;;;;;;24.70;14.50;;;;;;;4.88;100.00;97739.73;213712;1312;22612;-77
2022/12/23 17:34:10;;;;;;;30.90;14.90;;;;;;;4.87;100.00;97751.04;213870;1312;25507;-76
2022/12/23 17:39:12;;;;;;;26.60;14.50;;;;;;;4.85;100.00;97736.88;213989;1312;24278;-77
2022/12/23 17:44:16;;;;;;;27.00;15.00;;;;;;;4.84;100.00;97738.38;213643;1312;25323;-77
2022/12/23 17:49:18;;;;;;;32.10;16.90;;;;;;;4.83;100.00;97741.79;213700;1312;22623;-77
2022/12/23 17:54:23;;;;;;;30.40;15.10;;;;;;;4.82;100.00;97748.73;213804;1297;22679;-75
2022/12/23 17:59:25;;;;;;;33.90;17.20;;;;;;;4.83;100.00;97753.02;213954;1312;24688;-77
2022/12/23 18:04:27;;;;;;;32.70;15.40;;;;;;;4.83;100.00;97750.38;213634;1308;23261;-77
2022/12/23 18:09:29;;;;;;;31.40;16.00;;;;;;;4.81;100.00;97754.16;213952;1312;24316;-77
2022/12/23 18:14:31;;;;;;;28.90;15.90;;;;;;;4.77;100.00;97755.14;213772;1312;25272;-78
2022/12/23 18:19:32;;;;;;;35.90;18.30;;;;;;;4.77;100.00;97761.24;213695;1312;22480;-77
2022/12/23 18:24:34;;;;;;;35.60;19.50;;;;;;;4.77;100.00;97766.96;213809;1312;22521;-77
2022/12/23 18:29:36;;;;;;;29.60;16.60;;;;;;;4.77;100.00;97779.22;213905;1312;24780;-77
2022/12/23 18:34:38;;;;;;;28.40;15.30;;;;;;;4.78;100.00;97770.89;213715;1288;24293;-77
2022/12/23 18:39:40;;;;;;;26.40;13.80;;;;;;;4.78;100.00;97764.38;213973;1312;25231;-77
2022/12/23 18:44:43;;;;;;;23.90;13.20;;;;;;;4.78;100.00;97756.41;213885;1305;24318;-77
2022/12/23 18:49:45;;;;;;;23.50;13.00;;;;;;;4.78;100.00;97754.08;213616;1306;22533;-77
2022/12/23 18:54:47;;;;;;;21.50;12.10;;;;;;;4.79;100.00;97749.13;213942;1312;22476;-78
2022/12/23 18:59:49;;;;;;;29.70;14.40;;;;;;;4.79;100.00;97750.09;213659;1312;22548;-77
2022/12/23 19:04:51;;;;;;;22.80;12.90;;;;;;;4.80;100.00;97749.55;213830;1306;22540;-77
2022/12/23 19:09:53;;;;;;;28.00;14.00;;;;;;;4.80;100.00;97750.13;213891;1312;25345;-77
2022/12/23 19:14:54;;;;;;;28.60;14.40;;;;;;;4.81;100.00;97755.64;213987;1312;22566;-77
2022/12/23 19:19:56;;;;;;;28.10;14.20;;;;;;;4.83;100.00;97752.13;213771;1296;23710;-77
2022/12/23 19:24:58;;;;;;;27.20;14.00;;;;;;;4.85;100.00;97755.30;213932;1312;25454;-78
2022/12/23 19:30:12;;;;;;;28.30;13.60;;;;;;;4.85;100.00;97747.82;213911;1312;24504;-77
2022/12/23 19:35:14;;;;;;;24.80;14.00;;;;;;;4.87;100.00;97750.98;213987;1312;25482;-77
2022/12/23 19:40:16;;;;;;;23.90;12.40;;;;;;;4.89;100.00;97749.71;213723;1310;24324;-76
2022/12/23 19:45:18;;;;;;;21.00;10.90;;;;;;;4.93;100.00;97755.04;213719;1312;25165;-77
2022/12/23 19:50:21;;;;;;;18.80;10.60;;;;;;;4.98;100.00;97746.93;213759;1312;22513;-76
2022/12/23 19:55:24;;;;;;;19.40;10.40;;;;;;;5.06;100.00;97751.76;213752;1312;22582;-77
2022/12/23 20:00:26;;;;;;;16.50;9.80;;;;;;;5.13;100.00;97741.72;213704;1312;22602;-77
2022/12/23 20:05:27;;;;;;;17.00;10.20;;;;;;;5.18;100.00;97729.58;213783;1312;25365;-76
2022/12/23 20:10:29;;;;;;;18.40;10.90;;;;;;;5.20;100.00;97712.98;213996;1296;24325;-77
2022/12/23 20:15:31;;;;;;;20.10;10.70;;;;;;;5.19;100.00;97703.39;213920;1312;22456;-77
2022/12/23 20:20:35;;;;;;;21.50;11.60;;;;;;;5.20;100.00;97698.45;213685;1313;23409;-77
2022/12/23 20:25:36;;;;;;;22.20;12.20;;;;;;;5.21;100.00;97689.62;213877;1304;25360;-77
2022/12/23 20:30:38;;;;;;;19.20;12.10;;;;;;;5.20;100.00;97693.29;213793;1306;24379;-76
2022/12/23 20:35:40;;;;;;;20.60;11.00;;;;;;;5.21;100.00;97693.18;213892;1287;22901;-77
2022/12/23 20:40:42;;;;;;;21.50;12.20;;;;;;;5.22;100.00;97694.02;213702;1312;22523;-77
2022/12/23 20:45:45;;;;;;;20.50;12.30;;;;;;;5.24;100.00;97691.25;213790;1304;25510;-77
2022/12/23 20:50:48;;;;;;;22.00;12.40;;;;;;;5.24;100.00;97686.09;213727;1312;22956;-76
2022/12/23 20:55:49;;;;;;;24.30;13.60;;;;;;;5.25;100.00;97683.64;213696;1313;24352;-76
2022/12/23 21:00:51;;;;;;;26.20;14.00;;;;;;;5.25;100.00;97672.43;213776;1307;22649;-77
2022/12/23 21:05:55;;;;;;;21.80;11.40;;;;;;;5.26;100.00;97671.57;213673;1297;22604;-77
2022/12/23 21:10:57;;;;;;;18.00;10.60;;;;;;;5.26;100.00;97677.52;213870;1312;22944;-77
2022/12/23 21:16:05;;;;;;;18.50;10.50;;;;;;;5.25;100.00;97678.53;213794;1288;22521;-77
2022/12/23 21:21:07;;;;;;;16.80;9.90;;;;;;;5.26;100.00;97673.86;213576;1312;22472;-77
2022/12/23 21:26:19;;;;;;;16.90;9.60;;;;;;;5.26;100.00;97684.80;213795;1312;24402;-77
2022/12/23 21:31:22;;;;;;;15.90;9.70;;;;;;;5.28;100.00;97676.28;213769;1313;22474;-76
2022/12/23 21:36:27;;;;;;;14.80;9.40;;;;;;;5.28;100.00;97673.04;213315;1305;22493;-79
2022/12/23 21:41:34;;;;;;;15.50;8.70;;;;;;;5.29;100.00;97669.52;213522;1313;22512;-77
2022/12/23 21:46:36;;;;;;;16.50;9.70;;;;;;;5.29;100.00;97666.97;213918;1304;26456;-76
2022/12/23 21:51:38;;;;;;;17.00;10.40;;;;;;;5.28;100.00;97665.76;213834;1307;22477;-75
2022/12/23 21:56:42;;;;;;;17.70;10.60;;;;;;;5.27;100.00;97660.36;213830;1307;25324;-76
2022/12/23 22:01:45;;;;;;;19.70;10.70;;;;;;;5.25;100.00;97659.30;213840;1313;22517;-76
2022/12/23 22:06:47;;;;;;;20.40;11.20;;;;;;;5.21;100.00;97653.35;213523;1313;22468;-77
2022/12/23 22:11:49;;;;;;;19.60;10.90;;;;;;;5.16;100.00;97653.72;213859;1313;22479;-77
2022/12/23 22:16:55;;;;;;;22.30;11.30;;;;;;;5.13;100.00;97647.38;213778;1297;22471;-78
2022/12/23 22:21:56;;;;;;;19.90;11.20;;;;;;;5.12;100.00;97648.23;213600;1313;22582;-77
2022/12/23 22:26:58;;;;;;;19.30;11.90;;;;;;;5.08;100.00;97637.22;213882;1312;22520;-76
2022/12/23 22:32:00;;;;;;;25.10;13.90;;;;;;;5.05;100.00;97632.21;213900;1312;25358;-77
2022/12/23 22:37:02;;;;;;;22.30;13.30;;;;;;;5.02;100.00;97630.23;213867;1312;22599;-77
2022/12/23 22:42:04;;;;;;;23.20;14.20;;;;;;;5.00;100.00;97624.02;213714;1307;104508;-76
2022/12/23 22:47:05;;;;;;;31.00;16.10;;;;;;;4.97;100.00;97630.58;214011;1288;25342;-77
2022/12/23 22:52:08;;;;;;;36.30;19.60;;;;;;;4.94;100.00;97629.02;214012;1312;22488;-77
2022/12/23 22:57:10;;;;;;;32.10;19.10;;;;;;;4.91;100.00;97635.09;213970;1290;22469;-77
2022/12/23 23:02:12;;;;;;;35.60;19.60;;;;;;;4.89;100.00;97645.98;213710;1306;24476;-77
2022/12/23 23:07:13;;;;;;;40.80;21.00;;;;;;;4.88;100.00;97643.13;213776;1312;24533;-75
2022/12/23 23:12:15;;;;;;;35.10;19.10;;;;;;;4.88;100.00;97634.17;213804;1312;22547;-76
2022/12/23 23:17:19;;;;;;;32.70;19.40;;;;;;;4.86;100.00;97622.19;213779;1312;25540;-76
2022/12/23 23:22:23;;;;;;;45.20;21.60;;;;;;;4.82;100.00;97617.34;213634;1312;22727;-78
2022/12/23 23:27:25;;;;;;;47.70;23.70;;;;;;;4.78;100.00;97607.23;213914;1312;22540;-76
2022/12/23 23:32:27;;;;;;;44.00;23.60;;;;;;;4.78;100.00;97597.04;213735;1313;22465;-78
2022/12/23 23:37:28;;;;;;;37.00;19.80;;;;;;;4.78;100.00;97587.23;213687;1313;22542;-77